Pagrindinis puslapis
METAR-TAF:

METAR-TAF

Oro uostai :

Luni

Sarzana, Italija

platuma: 44-05N, ilguma: 009-59E, Aukštis: 9 m

Dabartinis oras

Ataskaita buvo paskelbta 6 valandos ir 7 minutes, ne 13:55 UTC
Temperatūra 27°C
Drėgmė 62%
Slėgis 1015 hPa
Matomumas 10 km arba daugiau
Mažai debesys ne aukštis 3000 ft, Liūtiniai kamuoliniai debesys.
perkūnija

METAR: LIQW 191355Z /////KT 9999 TS FEW030CB 27/19 Q1015

Laikas: 22:02 (20:02 UTC)

Prognozė

Ataskaita buvo paskelbta 9 valandos ir 2 minutes, ne 11:00 UTC
Prognozė galioja nuo 19 metu 12 UTC su 19 metu 21 UTC
Vėjas 5 kt iš Pietų
Matomumas 10 km arba daugiau
Išsisklaidę debesys ne aukštis 4000 ft
Tapsmas
nuo 19 metu 19 UTC su 19 metu 21 UTC
Vėjas 5 kt iš Vakarų/Šiaurės Vakarų

TAF: LIQW 191100Z 1912/1921 18005KT 9999 SCT040 BECMG 1919/1921 30005KT

Orai ataskaitas ir orų prognozės (METAR, TAF).

turimą stotys yra geltonos ir raudonos taškus žemėlapyje.

Perkelti pele per norėdami pamatyti stoties vardą.

Tada spustelėkite, norėdami matyti oro stebėjimo ir prognozės.

Norėdami pakeisti žemėlapį: spustelėkite ant žalios mygtukų su juodo kryžiaus žemyn,; žalią mygtuką su brūkšneliu, jei norite nutolinti; arba žalių rodyklių gretimoms žemėlapius.


METAR-TAF: